ISR63H LLBG-LDZD
Flight info
| Callsign | ISR63H |
|---|---|
| Flight time | N/A |
| Altitude | 34000 |
| Route | SUVAS L53 ANIDE UL53 KOR UL613 YNN UL611 TUMBO DCT OVVER DCT RODON DCT PINUK DCT SPL |
| Aircraft | A320/M-SDE3FGHIRWY/LB1 |
Departure
| Time | 2026-05-04 12:30 |
|---|---|
| Airport | Ben Gurion International Airport (LLBG) |
Arrival
| Time | N/A |
|---|---|
| Airport | Zadar Airport (LDZD) |
| Time | Latitude | Longitude | Altitude | Speed | Heading |
|---|---|---|---|---|---|
| 2026-05-04 11:55 | 32.00057 | 34.87760 | 117 ft | 0 kts | 122° |
| 2026-05-04 12:17 | 32.00059 | 34.87756 | 117 ft | 2 kts | 122° |
| 2026-05-04 12:17 | 32.00070 | 34.87737 | 115 ft | 3 kts | 130° |
| 2026-05-04 12:17 | 32.00084 | 34.87720 | 117 ft | 3 kts | 138° |
| 2026-05-04 12:17 | 32.00100 | 34.87705 | 115 ft | 3 kts | 140° |
| 2026-05-04 12:18 | 32.00112 | 34.87692 | 116 ft | 3 kts | 121° |
| 2026-05-04 12:18 | 32.00118 | 34.87684 | 118 ft | 2 kts | 50° |
| 2026-05-04 12:18 | 32.00119 | 34.87683 | 118 ft | 0 kts | 32° |
| 2026-05-04 12:24 | 32.00120 | 34.87683 | 120 ft | 1 kts | 32° |
| 2026-05-04 12:24 | 32.00143 | 34.87700 | 118 ft | 8 kts | 31° |
| 2026-05-04 12:24 | 32.00203 | 34.87743 | 116 ft | 11 kts | 31° |
| 2026-05-04 12:25 | 32.00287 | 34.87802 | 120 ft | 16 kts | 31° |
| 2026-05-04 12:25 | 32.00385 | 34.87873 | 120 ft | 17 kts | 31° |
| 2026-05-04 12:25 | 32.00488 | 34.87947 | 119 ft | 15 kts | 31° |
| 2026-05-04 12:25 | 32.00570 | 34.87917 | 117 ft | 14 kts | 338° |
| 2026-05-04 12:26 | 32.00642 | 34.87957 | 118 ft | 12 kts | 32° |
| 2026-05-04 12:26 | 32.00692 | 34.87993 | 119 ft | 13 kts | 32° |
| 2026-05-04 12:26 | 32.00773 | 34.88052 | 118 ft | 14 kts | 32° |
| 2026-05-04 12:26 | 32.00859 | 34.88115 | 117 ft | 16 kts | 31° |
| 2026-05-04 12:27 | 32.01011 | 34.88225 | 118 ft | 24 kts | 32° |
| 2026-05-04 12:27 | 32.01172 | 34.88340 | 120 ft | 29 kts | 31° |
| 2026-05-04 12:27 | 32.01331 | 34.88483 | 118 ft | 30 kts | 45° |
| 2026-05-04 12:27 | 32.01451 | 34.88683 | 118 ft | 30 kts | 64° |
| 2026-05-04 12:28 | 32.01495 | 34.88839 | 120 ft | 31 kts | 78° |
| 2026-05-04 12:28 | 32.01535 | 34.89089 | 117 ft | 25 kts | 79° |
| 2026-05-04 12:28 | 32.01609 | 34.89160 | 117 ft | 16 kts | 349° |
| 2026-05-04 12:28 | 32.01722 | 34.89135 | 118 ft | 11 kts | 350° |
| 2026-05-04 12:29 | 32.01746 | 34.89090 | 119 ft | 0 kts | 259° |
| 2026-05-04 12:29 | 32.01746 | 34.89088 | 119 ft | 2 kts | 259° |
| 2026-05-04 12:29 | 32.01711 | 34.88865 | 121 ft | 61 kts | 259° |
| 2026-05-04 12:30 | 32.01601 | 34.88144 | 119 ft | 116 kts | 259° |
| 2026-05-04 12:30 | 32.01429 | 34.87036 | 136 ft | 157 kts | 260° |
| 2026-05-04 12:30 | 32.01234 | 34.85813 | 763 ft | 151 kts | 256° |
| 2026-05-04 12:30 | 32.00997 | 34.84616 | 1435 ft | 150 kts | 257° |
| 2026-05-04 12:31 | 32.00751 | 34.83424 | 2043 ft | 150 kts | 256° |
| 2026-05-04 12:31 | 32.00508 | 34.82238 | 2562 ft | 149 kts | 257° |
| 2026-05-04 12:31 | 32.00264 | 34.81046 | 3038 ft | 150 kts | 257° |
| 2026-05-04 12:31 | 32.00017 | 34.79843 | 3436 ft | 157 kts | 257° |
| 2026-05-04 12:32 | 31.99647 | 34.78035 | 3633 ft | 187 kts | 257° |
| 2026-05-04 12:32 | 31.99173 | 34.75290 | 4004 ft | 227 kts | 270° |
| 2026-05-04 12:32 | 31.99595 | 34.73435 | 4568 ft | 241 kts | 288° |
| 2026-05-04 12:33 | 32.00201 | 34.71581 | 5364 ft | 244 kts | 287° |
| 2026-05-04 12:33 | 32.00791 | 34.69693 | 6162 ft | 247 kts | 286° |
| 2026-05-04 12:33 | 32.01319 | 34.67755 | 6905 ft | 250 kts | 283° |
| 2026-05-04 12:33 | 32.01790 | 34.65775 | 7652 ft | 252 kts | 283° |
| 2026-05-04 12:34 | 32.02243 | 34.63770 | 8440 ft | 254 kts | 282° |
| 2026-05-04 12:34 | 32.02694 | 34.61748 | 9227 ft | 256 kts | 283° |
| 2026-05-04 12:34 | 32.03150 | 34.59714 | 10008 ft | 258 kts | 283° |
| 2026-05-04 12:34 | 32.03623 | 34.57614 | 10340 ft | 276 kts | 283° |
| 2026-05-04 12:35 | 32.04138 | 34.55340 | 10485 ft | 299 kts | 283° |
| 2026-05-04 12:35 | 32.04688 | 34.52919 | 10609 ft | 321 kts | 283° |
| 2026-05-04 12:35 | 32.05286 | 34.50313 | 10943 ft | 335 kts | 283° |
| 2026-05-04 12:35 | 32.05902 | 34.47650 | 11595 ft | 339 kts | 283° |
| 2026-05-04 12:36 | 32.06523 | 34.44962 | 12322 ft | 341 kts | 283° |
| 2026-05-04 12:36 | 32.07148 | 34.42256 | 13038 ft | 343 kts | 283° |
| 2026-05-04 12:36 | 32.07773 | 34.39530 | 13774 ft | 346 kts | 283° |
| 2026-05-04 12:36 | 32.08402 | 34.36781 | 14447 ft | 348 kts | 282° |
| 2026-05-04 12:37 | 32.09033 | 34.34027 | 15161 ft | 348 kts | 282° |
| 2026-05-04 12:37 | 32.09664 | 34.31270 | 15864 ft | 348 kts | 282° |
| 2026-05-04 12:37 | 32.10295 | 34.28509 | 16576 ft | 349 kts | 282° |
| 2026-05-04 12:37 | 32.10926 | 34.25747 | 17286 ft | 349 kts | 282° |
| 2026-05-04 12:38 | 32.11547 | 34.23016 | 17976 ft | 350 kts | 281° |
| 2026-05-04 12:38 | 32.12176 | 34.20246 | 18624 ft | 350 kts | 281° |
| 2026-05-04 12:38 | 32.12811 | 34.17470 | 19203 ft | 351 kts | 281° |
| 2026-05-04 12:38 | 32.13449 | 34.14681 | 19777 ft | 353 kts | 281° |
| 2026-05-04 12:39 | 32.14085 | 34.11878 | 20354 ft | 355 kts | 281° |
| 2026-05-04 12:39 | 32.14724 | 34.09058 | 20916 ft | 357 kts | 281° |
| 2026-05-04 12:39 | 32.15366 | 34.06224 | 21449 ft | 359 kts | 281° |
| 2026-05-04 12:39 | 32.16010 | 34.03374 | 21961 ft | 361 kts | 281° |
| 2026-05-04 12:40 | 32.16648 | 34.00544 | 22457 ft | 363 kts | 281° |
| 2026-05-04 12:40 | 32.17553 | 33.97735 | 22951 ft | 371 kts | 290° |
| 2026-05-04 12:40 | 32.18691 | 33.94991 | 23463 ft | 373 kts | 290° |
| 2026-05-04 12:40 | 32.19840 | 33.92235 | 23881 ft | 375 kts | 290° |
| 2026-05-04 12:41 | 32.21000 | 33.89465 | 24277 ft | 377 kts | 290° |
| 2026-05-04 12:41 | 32.22158 | 33.86680 | 24698 ft | 377 kts | 290° |
| 2026-05-04 12:41 | 32.23304 | 33.83908 | 25257 ft | 375 kts | 290° |
| 2026-05-04 12:41 | 32.24443 | 33.81152 | 25821 ft | 372 kts | 290° |
| 2026-05-04 12:42 | 32.25573 | 33.78416 | 26359 ft | 369 kts | 289° |
| 2026-05-04 12:42 | 32.26679 | 33.75732 | 26908 ft | 367 kts | 289° |
| 2026-05-04 12:42 | 32.27792 | 33.73028 | 27457 ft | 365 kts | 289° |
| 2026-05-04 12:42 | 32.28897 | 33.70340 | 28028 ft | 363 kts | 289° |
| 2026-05-04 12:43 | 32.29993 | 33.67669 | 28625 ft | 360 kts | 289° |
| 2026-05-04 12:43 | 32.31081 | 33.65017 | 29228 ft | 357 kts | 289° |
| 2026-05-04 12:43 | 32.32164 | 33.62387 | 29821 ft | 354 kts | 289° |
| 2026-05-04 12:43 | 32.33232 | 33.59777 | 30338 ft | 352 kts | 289° |
| 2026-05-04 12:44 | 32.34298 | 33.57173 | 30775 ft | 351 kts | 289° |
| 2026-05-04 12:44 | 32.35360 | 33.54580 | 31204 ft | 351 kts | 289° |
| 2026-05-04 12:44 | 32.36407 | 33.52017 | 31602 ft | 350 kts | 289° |
| 2026-05-04 12:44 | 32.37466 | 33.49427 | 31994 ft | 350 kts | 289° |
| 2026-05-04 12:45 | 32.38523 | 33.46838 | 32380 ft | 349 kts | 289° |
| 2026-05-04 12:45 | 32.39580 | 33.44253 | 32779 ft | 349 kts | 289° |
| 2026-05-04 12:45 | 32.40635 | 33.41669 | 33174 ft | 348 kts | 289° |
| 2026-05-04 12:45 | 32.41687 | 33.39089 | 33566 ft | 348 kts | 289° |
| 2026-05-04 12:46 | 32.42742 | 33.36510 | 33921 ft | 349 kts | 289° |
| 2026-05-04 12:46 | 32.44875 | 33.31260 | 33999 ft | 362 kts | 289° |
| 2026-05-04 12:47 | 32.47066 | 33.25842 | 33995 ft | 370 kts | 289° |
| 2026-05-04 12:47 | 32.49307 | 33.20335 | 33995 ft | 372 kts | 289° |
| 2026-05-04 12:48 | 32.51553 | 33.14813 | 34015 ft | 372 kts | 289° |
| 2026-05-04 12:48 | 32.53785 | 33.09286 | 33994 ft | 372 kts | 289° |
| 2026-05-04 12:49 | 32.56006 | 33.03794 | 33994 ft | 372 kts | 289° |
| 2026-05-04 12:49 | 32.58239 | 32.98256 | 33997 ft | 372 kts | 289° |
| 2026-05-04 12:50 | 32.60460 | 32.92704 | 34000 ft | 373 kts | 289° |
| 2026-05-04 12:50 | 32.62706 | 32.87162 | 34030 ft | 373 kts | 289° |
| 2026-05-04 12:51 | 32.64926 | 32.81638 | 34019 ft | 374 kts | 289° |
| 2026-05-04 12:51 | 32.67155 | 32.76066 | 34013 ft | 374 kts | 289° |
| 2026-05-04 12:52 | 32.69387 | 32.70487 | 34003 ft | 374 kts | 289° |
| 2026-05-04 12:52 | 32.71623 | 32.64904 | 34004 ft | 374 kts | 289° |
| 2026-05-04 12:53 | 32.73837 | 32.59350 | 34006 ft | 375 kts | 290° |
| 2026-05-04 12:53 | 32.76065 | 32.53745 | 33996 ft | 376 kts | 289° |
| 2026-05-04 12:54 | 32.78298 | 32.48132 | 33998 ft | 376 kts | 290° |
| 2026-05-04 12:54 | 32.80532 | 32.42508 | 33995 ft | 376 kts | 290° |
| 2026-05-04 12:55 | 32.83132 | 32.37114 | 34001 ft | 383 kts | 297° |
| 2026-05-04 12:55 | 32.86160 | 32.31900 | 34005 ft | 383 kts | 298° |
| 2026-05-04 12:56 | 32.89193 | 32.26683 | 34004 ft | 383 kts | 298° |
| 2026-05-04 12:56 | 32.92212 | 32.21454 | 34000 ft | 383 kts | 298° |
| 2026-05-04 12:57 | 32.95212 | 32.16255 | 33987 ft | 383 kts | 298° |
| 2026-05-04 12:57 | 32.98233 | 32.11019 | 33989 ft | 383 kts | 297° |
| 2026-05-04 12:58 | 33.01250 | 32.05779 | 34012 ft | 383 kts | 298° |
| 2026-05-04 12:58 | 33.04244 | 32.00575 | 33984 ft | 379 kts | 298° |
| 2026-05-04 12:59 | 33.07190 | 31.95424 | 33981 ft | 379 kts | 298° |
| 2026-05-04 12:59 | 33.10164 | 31.90232 | 33982 ft | 379 kts | 298° |
| 2026-05-04 13:00 | 33.13141 | 31.85036 | 33973 ft | 380 kts | 298° |
| 2026-05-04 13:00 | 33.16116 | 31.79835 | 33994 ft | 380 kts | 298° |
| 2026-05-04 13:01 | 33.19092 | 31.74634 | 33994 ft | 379 kts | 298° |
| 2026-05-04 13:01 | 33.22040 | 31.69474 | 33994 ft | 378 kts | 298° |
| 2026-05-04 13:02 | 33.24994 | 31.64278 | 33992 ft | 378 kts | 298° |
| 2026-05-04 13:02 | 33.27943 | 31.59075 | 33988 ft | 378 kts | 298° |
| 2026-05-04 13:03 | 33.30885 | 31.53871 | 33985 ft | 378 kts | 298° |
| 2026-05-04 13:03 | 33.33834 | 31.48672 | 34004 ft | 377 kts | 299° |
| 2026-05-04 13:04 | 33.36758 | 31.43515 | 33994 ft | 377 kts | 299° |
| 2026-05-04 13:04 | 33.39688 | 31.38334 | 33990 ft | 376 kts | 298° |
| 2026-05-04 13:05 | 33.42629 | 31.33118 | 33991 ft | 376 kts | 298° |
| 2026-05-04 13:05 | 33.45533 | 31.27973 | 33989 ft | 376 kts | 298° |
| 2026-05-04 13:06 | 33.48465 | 31.22763 | 34000 ft | 376 kts | 299° |
| 2026-05-04 13:06 | 33.51385 | 31.17570 | 33991 ft | 376 kts | 299° |
| 2026-05-04 13:07 | 33.54306 | 31.12368 | 33985 ft | 377 kts | 299° |
| 2026-05-04 13:07 | 33.57217 | 31.07182 | 33981 ft | 377 kts | 299° |
| 2026-05-04 13:08 | 33.60133 | 31.01972 | 33978 ft | 377 kts | 299° |
| 2026-05-04 13:08 | 33.63053 | 30.96752 | 33978 ft | 377 kts | 299° |
| 2026-05-04 13:09 | 33.65968 | 30.91523 | 33982 ft | 377 kts | 299° |
| 2026-05-04 13:09 | 33.68881 | 30.86292 | 33976 ft | 377 kts | 299° |
| 2026-05-04 13:10 | 33.71788 | 30.81075 | 33974 ft | 377 kts | 299° |
| 2026-05-04 13:10 | 33.74697 | 30.75834 | 33973 ft | 377 kts | 299° |
| 2026-05-04 13:11 | 33.77599 | 30.70587 | 33973 ft | 377 kts | 299° |
| 2026-05-04 13:11 | 33.80483 | 30.65379 | 33970 ft | 377 kts | 299° |
| 2026-05-04 13:12 | 33.83398 | 30.60119 | 33962 ft | 377 kts | 299° |
| 2026-05-04 13:12 | 33.86295 | 30.54886 | 33962 ft | 377 kts | 299° |
| 2026-05-04 13:13 | 33.89186 | 30.49643 | 33966 ft | 377 kts | 299° |
| 2026-05-04 13:13 | 33.92078 | 30.44399 | 34010 ft | 377 kts | 299° |
| 2026-05-04 13:14 | 33.94990 | 30.39100 | 33970 ft | 379 kts | 299° |
| 2026-05-04 13:14 | 33.97899 | 30.33796 | 33959 ft | 380 kts | 299° |
| 2026-05-04 13:15 | 34.00818 | 30.28474 | 33945 ft | 381 kts | 299° |
| 2026-05-04 13:15 | 34.03737 | 30.23148 | 33942 ft | 382 kts | 299° |
| 2026-05-04 13:16 | 34.06643 | 30.17832 | 33945 ft | 382 kts | 299° |
| 2026-05-04 13:16 | 34.09570 | 30.12484 | 33951 ft | 382 kts | 299° |
| 2026-05-04 13:17 | 34.12506 | 30.07111 | 33949 ft | 383 kts | 300° |
| 2026-05-04 13:17 | 34.15419 | 30.01755 | 33958 ft | 384 kts | 300° |
| 2026-05-04 13:18 | 34.18468 | 29.96450 | 33956 ft | 386 kts | 303° |
| 2026-05-04 13:18 | 34.21782 | 29.91338 | 33961 ft | 387 kts | 304° |
| 2026-05-04 13:19 | 34.25134 | 29.86241 | 33957 ft | 387 kts | 303° |
| 2026-05-04 13:19 | 34.28417 | 29.81119 | 33959 ft | 387 kts | 303° |
| 2026-05-04 13:20 | 34.31695 | 29.75948 | 33969 ft | 387 kts | 303° |
| 2026-05-04 13:20 | 34.34966 | 29.70778 | 33991 ft | 388 kts | 303° |
| 2026-05-04 13:21 | 34.38232 | 29.65607 | 33945 ft | 390 kts | 303° |
| 2026-05-04 13:21 | 34.41535 | 29.60382 | 33938 ft | 392 kts | 303° |
| 2026-05-04 13:22 | 34.44854 | 29.55126 | 33942 ft | 393 kts | 303° |
| 2026-05-04 13:22 | 34.48170 | 29.49856 | 33940 ft | 394 kts | 304° |
| 2026-05-04 13:23 | 34.51496 | 29.44584 | 33943 ft | 394 kts | 304° |
| 2026-05-04 13:23 | 34.54824 | 29.39291 | 33947 ft | 394 kts | 303° |
| 2026-05-04 13:24 | 34.58152 | 29.33983 | 33955 ft | 395 kts | 303° |
| 2026-05-04 13:24 | 34.61454 | 29.28704 | 33957 ft | 395 kts | 303° |
| 2026-05-04 13:25 | 34.66422 | 29.20759 | 33954 ft | 396 kts | 304° |
| 2026-05-04 13:25 | 34.69754 | 29.15429 | 33951 ft | 396 kts | 304° |
| 2026-05-04 13:26 | 34.73098 | 29.10064 | 33955 ft | 397 kts | 304° |
| 2026-05-04 13:26 | 34.76409 | 29.04734 | 33959 ft | 398 kts | 304° |
| 2026-05-04 13:27 | 34.79736 | 28.99386 | 33973 ft | 398 kts | 304° |
| 2026-05-04 13:27 | 34.83092 | 28.93992 | 33966 ft | 399 kts | 304° |
| 2026-05-04 13:28 | 34.86417 | 28.88626 | 33971 ft | 399 kts | 304° |
| 2026-05-04 13:28 | 34.89767 | 28.83204 | 33975 ft | 400 kts | 304° |
| 2026-05-04 13:29 | 34.93094 | 28.77816 | 33984 ft | 400 kts | 304° |
| 2026-05-04 13:29 | 34.96446 | 28.72389 | 33986 ft | 400 kts | 304° |
| 2026-05-04 13:30 | 34.99773 | 28.66988 | 33986 ft | 400 kts | 304° |
| 2026-05-04 13:30 | 35.02902 | 28.61444 | 33994 ft | 398 kts | 300° |
| 2026-05-04 13:31 | 35.05774 | 28.55638 | 33988 ft | 398 kts | 300° |
| 2026-05-04 13:31 | 35.08621 | 28.49903 | 33996 ft | 398 kts | 300° |
| 2026-05-04 13:32 | 35.11490 | 28.44136 | 34001 ft | 398 kts | 300° |
| 2026-05-04 13:32 | 35.14370 | 28.38322 | 34003 ft | 400 kts | 300° |
| 2026-05-04 13:33 | 35.17238 | 28.32507 | 33973 ft | 401 kts | 300° |
| 2026-05-04 13:33 | 35.20118 | 28.26666 | 33979 ft | 402 kts | 300° |
| 2026-05-04 13:34 | 35.22991 | 28.20830 | 33983 ft | 403 kts | 300° |
| 2026-05-04 13:34 | 35.25872 | 28.14958 | 33991 ft | 403 kts | 300° |
| 2026-05-04 13:35 | 35.30195 | 28.06144 | 33999 ft | 403 kts | 301° |
| 2026-05-04 13:36 | 35.33075 | 28.00266 | 34000 ft | 403 kts | 301° |
| 2026-05-04 13:36 | 35.35946 | 27.94379 | 34003 ft | 403 kts | 301° |
| 2026-05-04 13:37 | 35.38823 | 27.88481 | 34005 ft | 403 kts | 301° |
| 2026-05-04 13:37 | 35.41698 | 27.82563 | 34012 ft | 404 kts | 301° |
| 2026-05-04 13:38 | 35.44563 | 27.76666 | 34016 ft | 404 kts | 301° |
| 2026-05-04 13:38 | 35.47425 | 27.70764 | 34024 ft | 404 kts | 301° |
| 2026-05-04 13:39 | 35.50287 | 27.64863 | 34025 ft | 404 kts | 301° |
| 2026-05-04 13:39 | 35.53148 | 27.58949 | 34031 ft | 404 kts | 301° |
| 2026-05-04 13:40 | 35.56026 | 27.52988 | 34030 ft | 404 kts | 301° |
| 2026-05-04 13:40 | 35.58866 | 27.47085 | 34022 ft | 404 kts | 301° |
| 2026-05-04 13:41 | 35.61724 | 27.41136 | 34039 ft | 404 kts | 301° |
| 2026-05-04 13:41 | 35.64568 | 27.35213 | 34043 ft | 405 kts | 301° |
| 2026-05-04 13:42 | 35.68860 | 27.26249 | 34041 ft | 405 kts | 301° |
| 2026-05-04 13:42 | 35.71699 | 27.20299 | 34048 ft | 405 kts | 301° |
| 2026-05-04 13:43 | 35.74562 | 27.14304 | 34044 ft | 405 kts | 301° |
| 2026-05-04 13:43 | 35.77408 | 27.08349 | 34051 ft | 406 kts | 301° |
| 2026-05-04 13:44 | 35.80260 | 27.02339 | 34052 ft | 406 kts | 301° |
| 2026-05-04 13:44 | 35.83060 | 26.96341 | 34056 ft | 406 kts | 299° |
| 2026-05-04 13:45 | 35.85582 | 26.90107 | 34060 ft | 407 kts | 296° |
| 2026-05-04 13:45 | 35.87937 | 26.83793 | 34047 ft | 407 kts | 296° |
| 2026-05-04 13:46 | 35.90328 | 26.77465 | 34052 ft | 406 kts | 298° |
| 2026-05-04 13:46 | 35.93366 | 26.71673 | 34068 ft | 404 kts | 305° |
| 2026-05-04 13:47 | 35.96571 | 26.65945 | 34069 ft | 404 kts | 305° |
| 2026-05-04 13:47 | 35.99729 | 26.60252 | 34075 ft | 404 kts | 305° |
| 2026-05-04 13:48 | 36.02892 | 26.54537 | 34062 ft | 404 kts | 305° |
| 2026-05-04 13:48 | 36.06056 | 26.48809 | 34094 ft | 404 kts | 305° |
| 2026-05-04 13:49 | 36.09220 | 26.43073 | 34078 ft | 405 kts | 305° |
| 2026-05-04 13:49 | 36.12390 | 26.37321 | 34077 ft | 406 kts | 305° |
| 2026-05-04 13:50 | 36.15572 | 26.31542 | 34077 ft | 406 kts | 305° |
| 2026-05-04 13:50 | 36.18741 | 26.25785 | 34062 ft | 406 kts | 305° |
| 2026-05-04 13:51 | 36.21920 | 26.19987 | 34073 ft | 406 kts | 306° |
| 2026-05-04 13:51 | 36.25078 | 26.14205 | 34081 ft | 406 kts | 306° |
| 2026-05-04 13:52 | 36.29802 | 26.05568 | 34088 ft | 405 kts | 306° |
| 2026-05-04 13:53 | 36.32963 | 25.99778 | 34089 ft | 405 kts | 306° |
| 2026-05-04 13:53 | 36.36107 | 25.93995 | 34077 ft | 405 kts | 306° |
| 2026-05-04 13:54 | 36.40829 | 25.85289 | 34110 ft | 405 kts | 306° |
| 2026-05-04 13:55 | 36.45527 | 25.76619 | 34134 ft | 406 kts | 306° |
| 2026-05-04 13:55 | 36.50249 | 25.67884 | 34136 ft | 406 kts | 306° |
| 2026-05-04 13:56 | 36.53391 | 25.62048 | 34127 ft | 406 kts | 306° |
| 2026-05-04 13:57 | 36.58092 | 25.53286 | 34102 ft | 406 kts | 306° |
| 2026-05-04 13:58 | 36.64338 | 25.41653 | 34107 ft | 405 kts | 306° |
| 2026-05-04 13:58 | 36.69111 | 25.32962 | 34087 ft | 405 kts | 307° |
| 2026-05-04 13:59 | 36.72361 | 25.27243 | 34111 ft | 404 kts | 307° |
| 2026-05-04 14:00 | 36.77200 | 25.18651 | 34129 ft | 403 kts | 307° |
| 2026-05-04 14:00 | 36.82031 | 25.10122 | 34159 ft | 402 kts | 313° |
| 2026-05-04 14:01 | 36.85851 | 25.05024 | 34146 ft | 403 kts | 314° |
| 2026-05-04 14:02 | 36.91613 | 24.97363 | 34123 ft | 403 kts | 315° |
| 2026-05-04 14:02 | 36.95457 | 24.92254 | 34132 ft | 403 kts | 315° |
| 2026-05-04 14:03 | 36.99263 | 24.87168 | 34133 ft | 403 kts | 314° |
| 2026-05-04 14:03 | 37.03088 | 24.82039 | 34131 ft | 403 kts | 314° |
| 2026-05-04 14:04 | 37.08823 | 24.74343 | 34126 ft | 403 kts | 314° |
| 2026-05-04 14:04 | 37.12648 | 24.69218 | 34122 ft | 403 kts | 314° |
| 2026-05-04 14:05 | 37.18358 | 24.61545 | 34136 ft | 403 kts | 315° |
| 2026-05-04 14:06 | 37.22177 | 24.56395 | 34133 ft | 403 kts | 315° |
| 2026-05-04 14:06 | 37.24088 | 24.53815 | 34342 ft | 403 kts | 314° |
| 2026-05-04 14:06 | 37.25989 | 24.51243 | 34708 ft | 401 kts | 314° |
| 2026-05-04 14:06 | 37.27884 | 24.48680 | 35012 ft | 401 kts | 314° |
| 2026-05-04 14:07 | 37.29784 | 24.46108 | 35297 ft | 402 kts | 314° |
| 2026-05-04 14:07 | 37.31685 | 24.43534 | 35573 ft | 402 kts | 314° |
| 2026-05-04 14:07 | 37.33588 | 24.40956 | 35843 ft | 403 kts | 314° |
| 2026-05-04 14:07 | 37.35495 | 24.38365 | 36058 ft | 404 kts | 314° |
| 2026-05-04 14:08 | 37.37400 | 24.35775 | 36122 ft | 403 kts | 314° |
| 2026-05-04 14:08 | 37.41175 | 24.30646 | 36128 ft | 402 kts | 314° |
| 2026-05-04 14:09 | 37.46881 | 24.22896 | 36133 ft | 404 kts | 314° |
| 2026-05-04 14:10 | 37.52611 | 24.15079 | 36130 ft | 405 kts | 314° |
| 2026-05-04 14:10 | 37.56431 | 24.09853 | 36132 ft | 406 kts | 314° |
| 2026-05-04 14:11 | 37.60252 | 24.04618 | 36129 ft | 405 kts | 314° |
| 2026-05-04 14:11 | 37.65934 | 23.96802 | 36149 ft | 404 kts | 314° |
| 2026-05-04 14:12 | 37.69732 | 23.91583 | 36154 ft | 403 kts | 314° |
| 2026-05-04 14:13 | 37.75395 | 23.83792 | 36151 ft | 403 kts | 314° |
| 2026-05-04 14:13 | 37.79179 | 23.78566 | 36147 ft | 404 kts | 314° |
| 2026-05-04 14:14 | 37.82971 | 23.73314 | 36127 ft | 404 kts | 314° |
| 2026-05-04 14:14 | 37.88647 | 23.65449 | 36147 ft | 403 kts | 314° |
| 2026-05-04 14:15 | 37.96159 | 23.54992 | 36152 ft | 402 kts | 314° |
| 2026-05-04 14:16 | 38.01803 | 23.47124 | 36124 ft | 402 kts | 314° |
| 2026-05-04 14:17 | 38.07444 | 23.39250 | 36144 ft | 402 kts | 314° |
| 2026-05-04 14:18 | 38.13043 | 23.31409 | 36142 ft | 401 kts | 314° |
| 2026-05-04 14:19 | 38.20517 | 23.20887 | 36143 ft | 401 kts | 314° |
| 2026-05-04 14:19 | 38.24249 | 23.15631 | 36140 ft | 400 kts | 314° |
| 2026-05-04 14:20 | 38.27985 | 23.10376 | 36113 ft | 400 kts | 314° |
| 2026-05-04 14:20 | 38.31685 | 23.05152 | 36129 ft | 400 kts | 314° |
| 2026-05-04 14:21 | 38.37264 | 22.97243 | 36141 ft | 400 kts | 314° |
| 2026-05-04 14:21 | 38.40986 | 22.91970 | 36143 ft | 400 kts | 314° |
| 2026-05-04 14:22 | 38.44697 | 22.86691 | 36141 ft | 400 kts | 314° |
| 2026-05-04 14:22 | 38.48381 | 22.81447 | 36138 ft | 399 kts | 314° |
| 2026-05-04 14:23 | 38.53932 | 22.73517 | 36117 ft | 399 kts | 314° |
| 2026-05-04 14:24 | 38.57631 | 22.68226 | 36120 ft | 399 kts | 314° |
| 2026-05-04 14:24 | 38.61324 | 22.62932 | 36126 ft | 399 kts | 314° |
| 2026-05-04 14:25 | 38.64989 | 22.57668 | 36128 ft | 399 kts | 314° |
| 2026-05-04 14:25 | 38.70529 | 22.49717 | 36134 ft | 399 kts | 314° |
| 2026-05-04 14:26 | 38.74226 | 22.44398 | 36114 ft | 400 kts | 314° |
| 2026-05-04 14:26 | 38.77916 | 22.39080 | 36125 ft | 399 kts | 314° |
| 2026-05-04 14:27 | 38.81596 | 22.33757 | 36130 ft | 399 kts | 314° |
| 2026-05-04 14:27 | 38.85248 | 22.28470 | 36126 ft | 398 kts | 314° |
| 2026-05-04 14:28 | 38.88922 | 22.23144 | 36123 ft | 398 kts | 314° |
| 2026-05-04 14:28 | 38.92587 | 22.17819 | 36120 ft | 398 kts | 314° |
| 2026-05-04 14:29 | 38.99912 | 22.07152 | 36094 ft | 399 kts | 314° |
| 2026-05-04 14:30 | 39.03563 | 22.01825 | 36095 ft | 400 kts | 314° |
| 2026-05-04 14:31 | 39.09076 | 21.93744 | 36100 ft | 401 kts | 314° |
| 2026-05-04 14:32 | 39.16444 | 21.82943 | 36098 ft | 401 kts | 314° |
| 2026-05-04 14:32 | 39.20120 | 21.77537 | 36082 ft | 401 kts | 313° |
| 2026-05-04 14:33 | 39.23789 | 21.72117 | 36098 ft | 401 kts | 313° |
| 2026-05-04 14:33 | 39.27424 | 21.66736 | 36105 ft | 400 kts | 313° |
| 2026-05-04 14:34 | 39.31085 | 21.61318 | 36109 ft | 401 kts | 314° |
| 2026-05-04 14:34 | 39.34750 | 21.55892 | 36107 ft | 401 kts | 314° |
| 2026-05-04 14:35 | 39.38413 | 21.50455 | 36114 ft | 401 kts | 314° |
| 2026-05-04 14:35 | 39.42076 | 21.45011 | 36116 ft | 401 kts | 314° |
| 2026-05-04 14:36 | 39.45711 | 21.39597 | 36107 ft | 401 kts | 314° |
| 2026-05-04 14:36 | 39.49369 | 21.34142 | 36106 ft | 401 kts | 314° |
| 2026-05-04 14:37 | 39.53027 | 21.28681 | 36108 ft | 401 kts | 313° |
| 2026-05-04 14:37 | 39.56677 | 21.23207 | 36107 ft | 401 kts | 314° |
| 2026-05-04 14:38 | 39.60325 | 21.17732 | 36109 ft | 402 kts | 314° |
| 2026-05-04 14:38 | 39.63959 | 21.12280 | 36076 ft | 402 kts | 313° |
| 2026-05-04 14:39 | 39.67616 | 21.06771 | 36087 ft | 404 kts | 313° |
| 2026-05-04 14:39 | 39.71284 | 21.01238 | 36097 ft | 404 kts | 313° |
| 2026-05-04 14:40 | 39.76788 | 20.92933 | 36113 ft | 404 kts | 313° |
| 2026-05-04 14:40 | 39.80428 | 20.87419 | 36116 ft | 405 kts | 313° |
| 2026-05-04 14:41 | 39.84093 | 20.81859 | 36115 ft | 405 kts | 313° |